CheckWX is a tool to help pilots better visualize weather data.  It is not intended as a substitute for an official pre-flight weather briefing.

19:58:18 UTC

LRSM TAF
Satu Mare Airport
Satu Mare, Romania
TAF LRSM 251400Z 2515/2524 02008KT CAVOK

Jun-25@
15:00 UTC

Jun-25 @ 15:00 UTC

Jun-26@
00:00 UTC

Jun-26 @ 00:00 UTC

TAF LRSM 251400Z 2515/2524 02008KT CAVOK
Wind
  • 020° at 8 KTS
Conditions
No significant weather
Cloud Levels
  • No significant clouds